sensor_id;sensor_type;location;lat;lon;timestamp;temperature;humidity
20526;DHT22;10421;49.142;9.232;2023-04-06T00:00:37;7.10;55.40
20526;DHT22;10421;49.142;9.232;2023-04-06T00:03:05;7.10;55.50
20526;DHT22;10421;49.142;9.232;2023-04-06T00:05:32;7.10;55.60
20526;DHT22;10421;49.142;9.232;2023-04-06T00:07:59;7.10;55.70
20526;DHT22;10421;49.142;9.232;2023-04-06T00:10:26;7.10;55.90
20526;DHT22;10421;49.142;9.232;2023-04-06T00:12:54;7.00;55.90
20526;DHT22;10421;49.142;9.232;2023-04-06T00:15:22;7.00;56.00
20526;DHT22;10421;49.142;9.232;2023-04-06T00:17:48;7.00;56.10
20526;DHT22;10421;49.142;9.232;2023-04-06T00:20:17;6.90;56.20
20526;DHT22;10421;49.142;9.232;2023-04-06T00:22:44;6.90;56.30
20526;DHT22;10421;49.142;9.232;2023-04-06T00:25:12;6.90;56.40
20526;DHT22;10421;49.142;9.232;2023-04-06T00:27:40;6.90;56.70
20526;DHT22;10421;49.142;9.232;2023-04-06T00:30:09;6.80;56.60
20526;DHT22;10421;49.142;9.232;2023-04-06T00:32:36;6.80;56.90
20526;DHT22;10421;49.142;9.232;2023-04-06T00:35:03;6.80;57.20
20526;DHT22;10421;49.142;9.232;2023-04-06T00:37:32;6.70;57.30
20526;DHT22;10421;49.142;9.232;2023-04-06T00:39:59;6.70;57.60
20526;DHT22;10421;49.142;9.232;2023-04-06T00:42:25;6.70;57.70
20526;DHT22;10421;49.142;9.232;2023-04-06T00:44:53;6.70;57.90
20526;DHT22;10421;49.142;9.232;2023-04-06T00:47:20;6.60;57.90
20526;DHT22;10421;49.142;9.232;2023-04-06T00:49:48;6.60;58.10
20526;DHT22;10421;49.142;9.232;2023-04-06T00:52:15;6.60;58.30
20526;DHT22;10421;49.142;9.232;2023-04-06T00:54:44;6.60;58.40
20526;DHT22;10421;49.142;9.232;2023-04-06T00:57:11;6.60;58.50
20526;DHT22;10421;49.142;9.232;2023-04-06T00:59:38;6.60;58.50
20526;DHT22;10421;49.142;9.232;2023-04-06T01:02:04;6.60;58.60
20526;DHT22;10421;49.142;9.232;2023-04-06T01:04:31;6.60;58.70
20526;DHT22;10421;49.142;9.232;2023-04-06T01:06:58;6.50;58.70
20526;DHT22;10421;49.142;9.232;2023-04-06T01:09:27;6.50;58.90
20526;DHT22;10421;49.142;9.232;2023-04-06T01:11:55;6.50;59.10
20526;DHT22;10421;49.142;9.232;2023-04-06T01:14:22;6.50;59.30
20526;DHT22;10421;49.142;9.232;2023-04-06T01:16:49;6.50;59.40
20526;DHT22;10421;49.142;9.232;2023-04-06T01:19:16;6.50;59.60
20526;DHT22;10421;49.142;9.232;2023-04-06T01:21:43;6.50;59.70
20526;DHT22;10421;49.142;9.232;2023-04-06T01:24:11;6.50;59.70
20526;DHT22;10421;49.142;9.232;2023-04-06T01:26:38;6.50;59.50
20526;DHT22;10421;49.142;9.232;2023-04-06T01:29:05;6.50;59.50
20526;DHT22;10421;49.142;9.232;2023-04-06T01:31:32;6.40;59.60
20526;DHT22;10421;49.142;9.232;2023-04-06T01:33:59;6.40;59.60
20526;DHT22;10421;49.142;9.232;2023-04-06T01:36:25;6.40;59.60
20526;DHT22;10421;49.142;9.232;2023-04-06T01:38:52;6.30;59.50
20526;DHT22;10421;49.142;9.232;2023-04-06T01:41:20;6.30;59.60
20526;DHT22;10421;49.142;9.232;2023-04-06T01:43:48;6.30;60.40
20526;DHT22;10421;49.142;9.232;2023-04-06T01:46:15;6.30;59.90
20526;DHT22;10421;49.142;9.232;2023-04-06T01:48:41;6.30;60.00
20526;DHT22;10421;49.142;9.232;2023-04-06T01:51:08;6.30;60.10
20526;DHT22;10421;49.142;9.232;2023-04-06T01:53:35;6.30;60.20
20526;DHT22;10421;49.142;9.232;2023-04-06T01:56:01;6.30;60.40
20526;DHT22;10421;49.142;9.232;2023-04-06T01:58:29;6.40;60.50
20526;DHT22;10421;49.142;9.232;2023-04-06T02:00:56;6.30;60.40
20526;DHT22;10421;49.142;9.232;2023-04-06T02:03:23;6.30;60.50
20526;DHT22;10421;49.142;9.232;2023-04-06T02:05:49;6.30;60.60
20526;DHT22;10421;49.142;9.232;2023-04-06T02:08:16;6.30;60.80
20526;DHT22;10421;49.142;9.232;2023-04-06T02:10:43;6.30;61.00
20526;DHT22;10421;49.142;9.232;2023-04-06T02:13:09;6.30;61.10
20526;DHT22;10421;49.142;9.232;2023-04-06T02:15:37;6.30;61.30
20526;DHT22;10421;49.142;9.232;2023-04-06T02:18:04;6.30;61.40
20526;DHT22;10421;49.142;9.232;2023-04-06T02:20:31;6.30;61.40
20526;DHT22;10421;49.142;9.232;2023-04-06T02:22:58;6.20;61.10
20526;DHT22;10421;49.142;9.232;2023-04-06T02:25:25;6.20;61.10
20526;DHT22;10421;49.142;9.232;2023-04-06T02:27:52;6.10;61.20
20526;DHT22;10421;49.142;9.232;2023-04-06T02:30:18;6.10;61.50
20526;DHT22;10421;49.142;9.232;2023-04-06T02:32:47;6.00;61.70
20526;DHT22;10421;49.142;9.232;2023-04-06T02:35:13;6.10;62.10
20526;DHT22;10421;49.142;9.232;2023-04-06T02:37:40;6.10;62.10
20526;DHT22;10421;49.142;9.232;2023-04-06T02:40:08;6.10;62.10
20526;DHT22;10421;49.142;9.232;2023-04-06T02:42:35;6.20;62.20
20526;DHT22;10421;49.142;9.232;2023-04-06T02:45:02;6.20;62.10
20526;DHT22;10421;49.142;9.232;2023-04-06T02:47:29;6.20;62.00
20526;DHT22;10421;49.142;9.232;2023-04-06T02:49:57;6.20;62.00
20526;DHT22;10421;49.142;9.232;2023-04-06T02:52:23;6.20;62.10
20526;DHT22;10421;49.142;9.232;2023-04-06T02:54:50;6.20;62.10
20526;DHT22;10421;49.142;9.232;2023-04-06T02:57:17;6.20;62.20
20526;DHT22;10421;49.142;9.232;2023-04-06T02:59:44;6.20;62.30
20526;DHT22;10421;49.142;9.232;2023-04-06T03:02:10;6.10;62.10
20526;DHT22;10421;49.142;9.232;2023-04-06T03:04:37;6.20;63.00
20526;DHT22;10421;49.142;9.232;2023-04-06T03:07:05;6.10;62.30
20526;DHT22;10421;49.142;9.232;2023-04-06T03:09:32;6.00;62.50
20526;DHT22;10421;49.142;9.232;2023-04-06T03:11:59;6.00;62.70
20526;DHT22;10421;49.142;9.232;2023-04-06T03:14:27;5.90;62.60
20526;DHT22;10421;49.142;9.232;2023-04-06T03:16:54;5.90;62.70
20526;DHT22;10421;49.142;9.232;2023-04-06T03:19:21;5.90;62.90
20526;DHT22;10421;49.142;9.232;2023-04-06T03:21:48;5.90;63.10
20526;DHT22;10421;49.142;9.232;2023-04-06T03:24:16;5.90;63.30
20526;DHT22;10421;49.142;9.232;2023-04-06T03:26:43;5.80;63.50
20526;DHT22;10421;49.142;9.232;2023-04-06T03:29:10;5.80;63.70
20526;DHT22;10421;49.142;9.232;2023-04-06T03:31:37;5.80;63.90
20526;DHT22;10421;49.142;9.232;2023-04-06T03:34:03;5.80;64.00
20526;DHT22;10421;49.142;9.232;2023-04-06T03:36:30;5.80;64.00
20526;DHT22;10421;49.142;9.232;2023-04-06T03:38:57;5.80;64.20
20526;DHT22;10421;49.142;9.232;2023-04-06T03:41:25;5.80;64.40
20526;DHT22;10421;49.142;9.232;2023-04-06T03:43:52;5.70;64.20
20526;DHT22;10421;49.142;9.232;2023-04-06T03:46:19;5.70;64.30
20526;DHT22;10421;49.142;9.232;2023-04-06T03:48:48;5.60;64.50
20526;DHT22;10421;49.142;9.232;2023-04-06T03:51:15;5.60;64.80
20526;DHT22;10421;49.142;9.232;2023-04-06T03:53:41;5.60;64.90
20526;DHT22;10421;49.142;9.232;2023-04-06T03:56:08;5.60;64.80
20526;DHT22;10421;49.142;9.232;2023-04-06T03:58:36;5.50;64.90
20526;DHT22;10421;49.142;9.232;2023-04-06T04:01:03;5.50;65.20
20526;DHT22;10421;49.142;9.232;2023-04-06T04:03:30;5.50;65.40
20526;DHT22;10421;49.142;9.232;2023-04-06T04:05:57;5.50;65.60
20526;DHT22;10421;49.142;9.232;2023-04-06T04:08:24;5.60;65.90
20526;DHT22;10421;49.142;9.232;2023-04-06T04:10:51;5.50;66.10
20526;DHT22;10421;49.142;9.232;2023-04-06T04:13:17;5.60;66.20
20526;DHT22;10421;49.142;9.232;2023-04-06T04:15:46;5.60;66.30
20526;DHT22;10421;49.142;9.232;2023-04-06T04:18:13;5.60;66.40
20526;DHT22;10421;49.142;9.232;2023-04-06T04:20:40;5.60;66.50
20526;DHT22;10421;49.142;9.232;2023-04-06T04:23:06;5.60;66.30
20526;DHT22;10421;49.142;9.232;2023-04-06T04:25:33;5.60;66.20
20526;DHT22;10421;49.142;9.232;2023-04-06T04:28:00;5.60;66.30
20526;DHT22;10421;49.142;9.232;2023-04-06T04:30:27;5.60;66.20
20526;DHT22;10421;49.142;9.232;2023-04-06T04:32:55;5.60;66.40
20526;DHT22;10421;49.142;9.232;2023-04-06T04:35:21;5.50;66.50
20526;DHT22;10421;49.142;9.232;2023-04-06T04:37:48;5.50;66.60
20526;DHT22;10421;49.142;9.232;2023-04-06T04:40:15;5.50;66.70
20526;DHT22;10421;49.142;9.232;2023-04-06T04:42:42;5.40;66.70
20526;DHT22;10421;49.142;9.232;2023-04-06T04:45:09;5.40;66.90
20526;DHT22;10421;49.142;9.232;2023-04-06T04:47:36;5.40;67.00
20526;DHT22;10421;49.142;9.232;2023-04-06T04:50:05;5.40;67.10
20526;DHT22;10421;49.142;9.232;2023-04-06T04:52:32;5.40;67.30
20526;DHT22;10421;49.142;9.232;2023-04-06T04:54:59;5.40;67.50
20526;DHT22;10421;49.142;9.232;2023-04-06T04:57:26;5.40;67.50
20526;DHT22;10421;49.142;9.232;2023-04-06T04:59:52;5.40;67.60
20526;DHT22;10421;49.142;9.232;2023-04-06T05:02:19;5.40;67.70
20526;DHT22;10421;49.142;9.232;2023-04-06T05:04:46;5.40;67.80
20526;DHT22;10421;49.142;9.232;2023-04-06T05:07:14;5.40;67.90
20526;DHT22;10421;49.142;9.232;2023-04-06T05:09:44;5.40;67.80
20526;DHT22;10421;49.142;9.232;2023-04-06T05:12:10;5.40;68.00
20526;DHT22;10421;49.142;9.232;2023-04-06T05:14:37;5.50;68.10
20526;DHT22;10421;49.142;9.232;2023-04-06T05:17:04;5.40;68.00
20526;DHT22;10421;49.142;9.232;2023-04-06T05:19:31;5.50;68.10
20526;DHT22;10421;49.142;9.232;2023-04-06T05:21:57;5.50;68.20
20526;DHT22;10421;49.142;9.232;2023-04-06T05:24:25;5.50;68.20
20526;DHT22;10421;49.142;9.232;2023-04-06T05:26:52;5.50;68.30
20526;DHT22;10421;49.142;9.232;2023-04-06T05:29:19;5.50;68.30
20526;DHT22;10421;49.142;9.232;2023-04-06T05:31:46;5.50;68.40
20526;DHT22;10421;49.142;9.232;2023-04-06T05:34:13;5.50;68.40
20526;DHT22;10421;49.142;9.232;2023-04-06T05:36:40;5.60;68.50
20526;DHT22;10421;49.142;9.232;2023-04-06T05:39:07;5.60;68.50
20526;DHT22;10421;49.142;9.232;2023-04-06T05:41:35;5.60;68.40
20526;DHT22;10421;49.142;9.232;2023-04-06T05:44:01;5.70;68.50
20526;DHT22;10421;49.142;9.232;2023-04-06T05:46:28;5.70;68.40
20526;DHT22;10421;49.142;9.232;2023-04-06T05:48:55;5.70;68.40
20526;DHT22;10421;49.142;9.232;2023-04-06T05:51:22;5.70;68.40
20526;DHT22;10421;49.142;9.232;2023-04-06T05:53:48;5.70;68.40
20526;DHT22;10421;49.142;9.232;2023-04-06T05:56:15;5.70;68.40
20526;DHT22;10421;49.142;9.232;2023-04-06T05:58:43;5.80;68.40
20526;DHT22;10421;49.142;9.232;2023-04-06T06:01:10;5.80;68.40
20526;DHT22;10421;49.142;9.232;2023-04-06T06:03:37;5.80;68.40
20526;DHT22;10421;49.142;9.232;2023-04-06T06:06:04;5.90;68.50
20526;DHT22;10421;49.142;9.232;2023-04-06T06:08:31;5.90;68.50
20526;DHT22;10421;49.142;9.232;2023-04-06T06:10:58;5.90;68.60
20526;DHT22;10421;49.142;9.232;2023-04-06T06:13:24;6.00;68.80
20526;DHT22;10421;49.142;9.232;2023-04-06T06:15:52;6.10;68.70
20526;DHT22;10421;49.142;9.232;2023-04-06T06:18:19;6.10;68.60
20526;DHT22;10421;49.142;9.232;2023-04-06T06:20:46;6.20;68.60
20526;DHT22;10421;49.142;9.232;2023-04-06T06:23:13;6.20;68.50
20526;DHT22;10421;49.142;9.232;2023-04-06T06:25:39;6.30;68.60
20526;DHT22;10421;49.142;9.232;2023-04-06T06:28:06;6.40;68.60
20526;DHT22;10421;49.142;9.232;2023-04-06T06:30:33;6.40;68.40
20526;DHT22;10421;49.142;9.232;2023-04-06T06:33:01;6.50;68.40
20526;DHT22;10421;49.142;9.232;2023-04-06T06:35:28;6.60;68.30
20526;DHT22;10421;49.142;9.232;2023-04-06T06:37:55;6.60;68.10
20526;DHT22;10421;49.142;9.232;2023-04-06T06:40:22;6.70;68.00
20526;DHT22;10421;49.142;9.232;2023-04-06T06:42:49;6.80;67.90
20526;DHT22;10421;49.142;9.232;2023-04-06T06:45:17;6.90;67.40
20526;DHT22;10421;49.142;9.232;2023-04-06T06:47:44;7.00;66.90
20526;DHT22;10421;49.142;9.232;2023-04-06T06:50:12;7.10;66.40
20526;DHT22;10421;49.142;9.232;2023-04-06T06:52:39;7.20;66.10
20526;DHT22;10421;49.142;9.232;2023-04-06T06:55:08;7.20;66.10
20526;DHT22;10421;49.142;9.232;2023-04-06T06:57:35;7.30;65.90
20526;DHT22;10421;49.142;9.232;2023-04-06T07:00:01;7.30;65.40
20526;DHT22;10421;49.142;9.232;2023-04-06T07:02:28;7.40;65.20
20526;DHT22;10421;49.142;9.232;2023-04-06T07:04:55;7.40;65.00
20526;DHT22;10421;49.142;9.232;2023-04-06T07:07:23;7.50;65.00
20526;DHT22;10421;49.142;9.232;2023-04-06T07:09:50;7.60;65.10
20526;DHT22;10421;49.142;9.232;2023-04-06T07:12:17;7.60;64.80
20526;DHT22;10421;49.142;9.232;2023-04-06T07:14:43;7.70;64.70
20526;DHT22;10421;49.142;9.232;2023-04-06T07:17:10;7.80;64.50
20526;DHT22;10421;49.142;9.232;2023-04-06T07:19:37;7.80;63.80
20526;DHT22;10421;49.142;9.232;2023-04-06T07:22:04;7.90;63.80
20526;DHT22;10421;49.142;9.232;2023-04-06T07:24:32;7.90;63.60
20526;DHT22;10421;49.142;9.232;2023-04-06T07:26:59;8.00;63.50
20526;DHT22;10421;49.142;9.232;2023-04-06T07:29:26;8.00;63.40
20526;DHT22;10421;49.142;9.232;2023-04-06T07:31:53;8.10;63.40
20526;DHT22;10421;49.142;9.232;2023-04-06T07:34:20;8.20;63.00
20526;DHT22;10421;49.142;9.232;2023-04-06T07:36:47;8.30;63.10
20526;DHT22;10421;49.142;9.232;2023-04-06T07:39:14;8.40;62.90
20526;DHT22;10421;49.142;9.232;2023-04-06T07:41:42;8.60;62.90
20526;DHT22;10421;49.142;9.232;2023-04-06T07:44:09;8.70;62.70
20526;DHT22;10421;49.142;9.232;2023-04-06T07:46:35;8.90;62.50
20526;DHT22;10421;49.142;9.232;2023-04-06T07:49:02;9.00;62.60
20526;DHT22;10421;49.142;9.232;2023-04-06T07:51:29;9.20;62.70
20526;DHT22;10421;49.142;9.232;2023-04-06T07:53:56;9.40;62.00
20526;DHT22;10421;49.142;9.232;2023-04-06T07:56:23;9.50;61.60
20526;DHT22;10421;49.142;9.232;2023-04-06T07:58:51;9.60;61.60
20526;DHT22;10421;49.142;9.232;2023-04-06T08:01:20;9.80;61.30
20526;DHT22;10421;49.142;9.232;2023-04-06T08:03:47;9.90;61.10
20526;DHT22;10421;49.142;9.232;2023-04-06T08:06:14;10.00;59.80
20526;DHT22;10421;49.142;9.232;2023-04-06T08:08:41;10.20;59.70
20526;DHT22;10421;49.142;9.232;2023-04-06T08:11:08;10.30;59.20
20526;DHT22;10421;49.142;9.232;2023-04-06T08:13:35;10.50;59.10
20526;DHT22;10421;49.142;9.232;2023-04-06T08:16:03;10.60;59.00
20526;DHT22;10421;49.142;9.232;2023-04-06T08:18:30;10.70;58.70
20526;DHT22;10421;49.142;9.232;2023-04-06T08:20:57;10.80;58.20
20526;DHT22;10421;49.142;9.232;2023-04-06T08:23:24;11.00;57.60
20526;DHT22;10421;49.142;9.232;2023-04-06T08:25:51;11.10;57.20
20526;DHT22;10421;49.142;9.232;2023-04-06T08:28:19;11.20;56.80
20526;DHT22;10421;49.142;9.232;2023-04-06T08:30:46;11.30;56.70
20526;DHT22;10421;49.142;9.232;2023-04-06T08:33:15;11.40;56.60
20526;DHT22;10421;49.142;9.232;2023-04-06T08:35:42;11.50;56.60
20526;DHT22;10421;49.142;9.232;2023-04-06T08:38:08;11.70;56.40
20526;DHT22;10421;49.142;9.232;2023-04-06T08:40:39;12.00;56.50
20526;DHT22;10421;49.142;9.232;2023-04-06T08:43:08;12.20;56.20
20526;DHT22;10421;49.142;9.232;2023-04-06T08:45:38;12.40;55.80
20526;DHT22;10421;49.142;9.232;2023-04-06T08:48:05;12.60;55.10
20526;DHT22;10421;49.142;9.232;2023-04-06T08:50:34;12.80;54.20
20526;DHT22;10421;49.142;9.232;2023-04-06T08:53:01;13.00;53.80
20526;DHT22;10421;49.142;9.232;2023-04-06T08:55:28;13.20;53.30
20526;DHT22;10421;49.142;9.232;2023-04-06T08:57:55;13.40;52.20
20526;DHT22;10421;49.142;9.232;2023-04-06T09:00:22;13.50;52.00
20526;DHT22;10421;49.142;9.232;2023-04-06T09:02:53;13.60;50.80
20526;DHT22;10421;49.142;9.232;2023-04-06T09:05:23;13.80;50.70
20526;DHT22;10421;49.142;9.232;2023-04-06T09:07:52;14.00;50.00
20526;DHT22;10421;49.142;9.232;2023-04-06T09:10:19;14.10;49.50
20526;DHT22;10421;49.142;9.232;2023-04-06T09:12:49;14.30;49.10
20526;DHT22;10421;49.142;9.232;2023-04-06T09:15:19;14.40;49.20
20526;DHT22;10421;49.142;9.232;2023-04-06T09:17:46;14.60;49.40
20526;DHT22;10421;49.142;9.232;2023-04-06T09:20:13;14.70;49.00
20526;DHT22;10421;49.142;9.232;2023-04-06T09:22:40;14.90;49.90
20526;DHT22;10421;49.142;9.232;2023-04-06T09:25:09;15.10;51.20
20526;DHT22;10421;49.142;9.232;2023-04-06T09:27:37;15.30;50.50
20526;DHT22;10421;49.142;9.232;2023-04-06T09:30:05;15.60;50.40
20526;DHT22;10421;49.142;9.232;2023-04-06T09:32:32;15.80;49.30
20526;DHT22;10421;49.142;9.232;2023-04-06T09:35:10;16.00;48.80
20526;DHT22;10421;49.142;9.232;2023-04-06T09:37:37;16.20;48.10
20526;DHT22;10421;49.142;9.232;2023-04-06T09:40:05;16.30;46.80
20526;DHT22;10421;49.142;9.232;2023-04-06T09:42:34;16.50;46.90
20526;DHT22;10421;49.142;9.232;2023-04-06T09:45:01;16.70;46.30
20526;DHT22;10421;49.142;9.232;2023-04-06T09:47:29;16.80;44.70
20526;DHT22;10421;49.142;9.232;2023-04-06T09:49:58;16.90;42.10
20526;DHT22;10421;49.142;9.232;2023-04-06T09:52:27;16.80;41.80
20526;DHT22;10421;49.142;9.232;2023-04-06T09:55:02;16.90;42.40
20526;DHT22;10421;49.142;9.232;2023-04-06T09:57:35;16.90;42.30
20526;DHT22;10421;49.142;9.232;2023-04-06T10:00:05;17.00;43.00
20526;DHT22;10421;49.142;9.232;2023-04-06T10:02:41;17.10;42.30
20526;DHT22;10421;49.142;9.232;2023-04-06T10:05:16;17.30;43.00
20526;DHT22;10421;49.142;9.232;2023-04-06T10:07:45;17.40;42.30
20526;DHT22;10421;49.142;9.232;2023-04-06T10:10:14;17.40;41.20
20526;DHT22;10421;49.142;9.232;2023-04-06T10:12:43;17.50;41.30
20526;DHT22;10421;49.142;9.232;2023-04-06T10:15:10;17.50;41.40
20526;DHT22;10421;49.142;9.232;2023-04-06T10:17:37;17.60;41.50
20526;DHT22;10421;49.142;9.232;2023-04-06T10:20:10;17.70;40.50
20526;DHT22;10421;49.142;9.232;2023-04-06T10:22:43;17.60;39.30
20526;DHT22;10421;49.142;9.232;2023-04-06T10:25:16;17.60;40.50
20526;DHT22;10421;49.142;9.232;2023-04-06T10:27:44;17.60;39.60
20526;DHT22;10421;49.142;9.232;2023-04-06T10:30:11;17.60;39.90
20526;DHT22;10421;49.142;9.232;2023-04-06T10:32:42;17.70;39.50
20526;DHT22;10421;49.142;9.232;2023-04-06T10:35:10;17.90;39.00
20526;DHT22;10421;49.142;9.232;2023-04-06T10:37:51;18.00;38.50
20526;DHT22;10421;49.142;9.232;2023-04-06T10:40:21;18.00;36.50
20526;DHT22;10421;49.142;9.232;2023-04-06T10:42:51;17.90;36.10
20526;DHT22;10421;49.142;9.232;2023-04-06T10:45:22;17.70;36.30
20526;DHT22;10421;49.142;9.232;2023-04-06T10:47:53;17.60;35.10
20526;DHT22;10421;49.142;9.232;2023-04-06T10:50:20;17.50;34.90
20526;DHT22;10421;49.142;9.232;2023-04-06T10:52:48;17.30;34.40
20526;DHT22;10421;49.142;9.232;2023-04-06T10:55:26;17.30;34.20
20526;DHT22;10421;49.142;9.232;2023-04-06T10:57:54;17.30;35.00
20526;DHT22;10421;49.142;9.232;2023-04-06T11:00:21;17.50;35.40
20526;DHT22;10421;49.142;9.232;2023-04-06T11:02:49;17.60;34.90
20526;DHT22;10421;49.142;9.232;2023-04-06T11:05:16;17.80;34.50
20526;DHT22;10421;49.142;9.232;2023-04-06T11:07:44;17.80;33.90
20526;DHT22;10421;49.142;9.232;2023-04-06T11:10:20;17.80;34.00
20526;DHT22;10421;49.142;9.232;2023-04-06T11:12:54;17.90;34.50
20526;DHT22;10421;49.142;9.232;2023-04-06T11:15:21;18.10;34.30
20526;DHT22;10421;49.142;9.232;2023-04-06T11:17:48;18.00;34.00
20526;DHT22;10421;49.142;9.232;2023-04-06T11:20:16;17.80;34.20
20526;DHT22;10421;49.142;9.232;2023-04-06T11:22:51;17.60;34.00
20526;DHT22;10421;49.142;9.232;2023-04-06T11:25:21;17.40;34.60
20526;DHT22;10421;49.142;9.232;2023-04-06T11:27:48;17.20;34.10
20526;DHT22;10421;49.142;9.232;2023-04-06T11:30:17;17.10;34.40
20526;DHT22;10421;49.142;9.232;2023-04-06T11:32:45;17.10;34.40
20526;DHT22;10421;49.142;9.232;2023-04-06T11:35:19;17.30;34.30
20526;DHT22;10421;49.142;9.232;2023-04-06T11:37:47;17.50;34.10
20526;DHT22;10421;49.142;9.232;2023-04-06T11:40:15;17.70;34.10
20526;DHT22;10421;49.142;9.232;2023-04-06T11:42:42;17.90;34.00
20526;DHT22;10421;49.142;9.232;2023-04-06T11:45:19;18.10;33.60
20526;DHT22;10421;49.142;9.232;2023-04-06T11:47:55;18.40;34.20
20526;DHT22;10421;49.142;9.232;2023-04-06T11:50:22;18.60;33.00
20526;DHT22;10421;49.142;9.232;2023-04-06T11:52:58;18.50;32.00
20526;DHT22;10421;49.142;9.232;2023-04-06T11:55:25;18.30;31.80
20526;DHT22;10421;49.142;9.232;2023-04-06T11:57:52;18.00;31.70
20526;DHT22;10421;49.142;9.232;2023-04-06T12:00:21;17.80;31.40
20526;DHT22;10421;49.142;9.232;2023-04-06T12:02:48;17.80;31.70
20526;DHT22;10421;49.142;9.232;2023-04-06T12:05:15;17.90;32.30
20526;DHT22;10421;49.142;9.232;2023-04-06T12:07:42;18.00;32.10
20526;DHT22;10421;49.142;9.232;2023-04-06T12:10:09;18.10;31.70
20526;DHT22;10421;49.142;9.232;2023-04-06T12:12:36;18.10;32.00
20526;DHT22;10421;49.142;9.232;2023-04-06T12:15:03;18.30;32.30
20526;DHT22;10421;49.142;9.232;2023-04-06T12:17:31;18.50;31.70
20526;DHT22;10421;49.142;9.232;2023-04-06T12:19:58;18.60;31.50
20526;DHT22;10421;49.142;9.232;2023-04-06T12:22:25;18.70;31.60
20526;DHT22;10421;49.142;9.232;2023-04-06T12:24:51;18.80;31.50
20526;DHT22;10421;49.142;9.232;2023-04-06T12:27:18;18.80;31.20
20526;DHT22;10421;49.142;9.232;2023-04-06T12:29:45;18.90;31.10
20526;DHT22;10421;49.142;9.232;2023-04-06T12:32:12;18.70;31.30
20526;DHT22;10421;49.142;9.232;2023-04-06T12:34:40;18.50;32.30
20526;DHT22;10421;49.142;9.232;2023-04-06T12:37:06;18.40;31.40
20526;DHT22;10421;49.142;9.232;2023-04-06T12:39:33;18.30;31.90
20526;DHT22;10421;49.142;9.232;2023-04-06T12:42:00;18.10;31.70
20526;DHT22;10421;49.142;9.232;2023-04-06T12:44:28;18.10;32.00
20526;DHT22;10421;49.142;9.232;2023-04-06T12:46:55;18.20;32.00
20526;DHT22;10421;49.142;9.232;2023-04-06T12:49:22;18.30;32.10
20526;DHT22;10421;49.142;9.232;2023-04-06T12:51:50;18.40;32.40
20526;DHT22;10421;49.142;9.232;2023-04-06T12:54:16;18.60;32.30
20526;DHT22;10421;49.142;9.232;2023-04-06T12:56:43;18.60;32.30
20526;DHT22;10421;49.142;9.232;2023-04-06T12:59:10;18.30;32.20
20526;DHT22;10421;49.142;9.232;2023-04-06T13:01:37;18.10;32.20
20526;DHT22;10421;49.142;9.232;2023-04-06T13:04:03;18.10;32.50
20526;DHT22;10421;49.142;9.232;2023-04-06T13:06:30;18.20;32.50
20526;DHT22;10421;49.142;9.232;2023-04-06T13:08:58;18.20;31.80
20526;DHT22;10421;49.142;9.232;2023-04-06T13:11:25;18.10;32.00
20526;DHT22;10421;49.142;9.232;2023-04-06T13:13:52;18.10;32.20
20526;DHT22;10421;49.142;9.232;2023-04-06T13:16:19;18.30;32.60
20526;DHT22;10421;49.142;9.232;2023-04-06T13:18:46;18.30;32.30
20526;DHT22;10421;49.142;9.232;2023-04-06T13:21:14;18.30;31.90
20526;DHT22;10421;49.142;9.232;2023-04-06T13:23:42;18.20;32.00
20526;DHT22;10421;49.142;9.232;2023-04-06T13:26:10;18.30;32.10
20526;DHT22;10421;49.142;9.232;2023-04-06T13:28:38;18.30;31.70
20526;DHT22;10421;49.142;9.232;2023-04-06T13:31:05;18.30;32.70
20526;DHT22;10421;49.142;9.232;2023-04-06T13:33:33;18.50;32.00
20526;DHT22;10421;49.142;9.232;2023-04-06T13:36:01;18.60;32.00
20526;DHT22;10421;49.142;9.232;2023-04-06T13:38:27;18.40;32.10
20526;DHT22;10421;49.142;9.232;2023-04-06T13:40:54;18.10;32.10
20526;DHT22;10421;49.142;9.232;2023-04-06T13:43:22;18.00;32.10
20526;DHT22;10421;49.142;9.232;2023-04-06T13:45:52;18.10;32.20
20526;DHT22;10421;49.142;9.232;2023-04-06T13:48:20;18.20;32.30
20526;DHT22;10421;49.142;9.232;2023-04-06T13:50:47;18.20;32.20
20526;DHT22;10421;49.142;9.232;2023-04-06T13:53:14;18.20;32.10
20526;DHT22;10421;49.142;9.232;2023-04-06T13:55:40;18.10;32.40
20526;DHT22;10421;49.142;9.232;2023-04-06T13:58:07;18.20;32.70
20526;DHT22;10421;49.142;9.232;2023-04-06T14:00:35;18.30;32.50
20526;DHT22;10421;49.142;9.232;2023-04-06T14:03:03;18.40;32.40
20526;DHT22;10421;49.142;9.232;2023-04-06T14:05:31;18.20;32.30
20526;DHT22;10421;49.142;9.232;2023-04-06T14:07:58;17.90;32.40
20526;DHT22;10421;49.142;9.232;2023-04-06T14:10:25;18.00;32.50
20526;DHT22;10421;49.142;9.232;2023-04-06T14:12:52;18.10;32.70
20526;DHT22;10421;49.142;9.232;2023-04-06T14:15:19;18.20;32.80
20526;DHT22;10421;49.142;9.232;2023-04-06T14:17:48;18.50;32.80
20526;DHT22;10421;49.142;9.232;2023-04-06T14:20:15;18.70;32.50
20526;DHT22;10421;49.142;9.232;2023-04-06T14:22:42;18.70;32.20
20526;DHT22;10421;49.142;9.232;2023-04-06T14:25:09;18.70;32.00
20526;DHT22;10421;49.142;9.232;2023-04-06T14:27:36;18.60;32.20
20526;DHT22;10421;49.142;9.232;2023-04-06T14:30:03;18.50;32.10
20526;DHT22;10421;49.142;9.232;2023-04-06T14:32:30;18.40;32.20
20526;DHT22;10421;49.142;9.232;2023-04-06T14:34:58;18.30;32.40
20526;DHT22;10421;49.142;9.232;2023-04-06T14:37:25;18.10;32.20
20526;DHT22;10421;49.142;9.232;2023-04-06T14:39:54;17.80;32.40
20526;DHT22;10421;49.142;9.232;2023-04-06T14:42:25;17.50;32.90
20526;DHT22;10421;49.142;9.232;2023-04-06T14:44:53;17.30;33.20
20526;DHT22;10421;49.142;9.232;2023-04-06T14:47:21;17.20;33.50
20526;DHT22;10421;49.142;9.232;2023-04-06T14:49:50;17.20;33.50
20526;DHT22;10421;49.142;9.232;2023-04-06T14:52:20;17.10;33.80
20526;DHT22;10421;49.142;9.232;2023-04-06T14:54:48;17.20;33.60
20526;DHT22;10421;49.142;9.232;2023-04-06T14:57:20;17.30;33.40
20526;DHT22;10421;49.142;9.232;2023-04-06T14:59:52;17.40;33.50
20526;DHT22;10421;49.142;9.232;2023-04-06T15:02:20;17.40;33.40
20526;DHT22;10421;49.142;9.232;2023-04-06T15:04:51;17.50;33.50
20526;DHT22;10421;49.142;9.232;2023-04-06T15:07:24;17.60;33.50
20526;DHT22;10421;49.142;9.232;2023-04-06T15:09:58;17.70;33.50
20526;DHT22;10421;49.142;9.232;2023-04-06T15:12:26;17.80;33.50
20526;DHT22;10421;49.142;9.232;2023-04-06T15:14:58;17.70;33.10
20526;DHT22;10421;49.142;9.232;2023-04-06T15:17:27;17.60;33.20
20526;DHT22;10421;49.142;9.232;2023-04-06T15:19:56;17.50;33.50
20526;DHT22;10421;49.142;9.232;2023-04-06T15:22:26;17.50;33.50
20526;DHT22;10421;49.142;9.232;2023-04-06T15:24:53;17.60;33.50
20526;DHT22;10421;49.142;9.232;2023-04-06T15:27:20;17.70;33.50
20526;DHT22;10421;49.142;9.232;2023-04-06T15:29:47;17.80;34.00
20526;DHT22;10421;49.142;9.232;2023-04-06T15:32:14;17.90;33.20
20526;DHT22;10421;49.142;9.232;2023-04-06T15:34:43;17.90;33.20
20526;DHT22;10421;49.142;9.232;2023-04-06T15:37:09;18.00;33.40
20526;DHT22;10421;49.142;9.232;2023-04-06T15:39:37;18.00;33.60